Terminal Aerodrome Forecast
Issued by NWS Jackson, KY

Home | Current Version | Previous Version | Text Only | Print | Product List | Glossary On
Versions: 1 2 3 4 5 6 7 8 9 10 11 12 13 14 15 16 17
000
FTUS43 KJKL 132300
TAFJKL
TAF
KJKL 132332Z 1400/1424 00000KT P6SM SCT035
      TEMPO 1400/1401 BKN030
     FM141100 VRB03KT P6SM SKC
     FM141800 31003KT P6SM SCT030 SCT080 SCT250=

USA.gov is the U.S. government's official web portal to all federal, state and local government web resources and services.